NSZ3DA ENTC-ENBR
Flight info
| Callsign | NSZ3DA |
|---|---|
| Flight time | N/A |
| Altitude | 34000 |
| Route | AMIMO DCT LUNUR |
| Aircraft | B738/M-SDE2E3FGHIRWXY/LB1 |
Departure
| Time | 2026-04-27 16:59 |
|---|---|
| Airport | Tromsø Airport (ENTC) |
Arrival
| Time | N/A |
|---|---|
| Airport | Bergen Airport, Flesland (ENBR) |
| Time | Latitude | Longitude | Altitude | Speed | Heading |
|---|---|---|---|---|---|
| 2026-04-27 16:47 | 69.68011 | 18.90954 | 35 ft | 0 kts | 283° |
| 2026-04-27 16:50 | 69.68009 | 18.90981 | 36 ft | 2 kts | 281° |
| 2026-04-27 16:50 | 69.68006 | 18.91018 | 37 ft | 2 kts | 283° |
| 2026-04-27 16:51 | 69.68003 | 18.91060 | 36 ft | 2 kts | 284° |
| 2026-04-27 16:51 | 69.67999 | 18.91106 | 34 ft | 2 kts | 285° |
| 2026-04-27 16:51 | 69.67994 | 18.91151 | 35 ft | 2 kts | 287° |
| 2026-04-27 16:51 | 69.67989 | 18.91196 | 35 ft | 2 kts | 291° |
| 2026-04-27 16:52 | 69.67982 | 18.91239 | 34 ft | 2 kts | 309° |
| 2026-04-27 16:52 | 69.67970 | 18.91259 | 34 ft | 1 kts | 9° |
| 2026-04-27 16:52 | 69.67967 | 18.91258 | 34 ft | 0 kts | 13° |
| 2026-04-27 16:54 | 69.67988 | 18.91273 | 33 ft | 9 kts | 13° |
| 2026-04-27 16:55 | 69.68049 | 18.91316 | 32 ft | 4 kts | 19° |
| 2026-04-27 16:55 | 69.68070 | 18.91376 | 31 ft | 3 kts | 65° |
| 2026-04-27 16:55 | 69.68072 | 18.91390 | 31 ft | 0 kts | 73° |
| 2026-04-27 16:56 | 69.68072 | 18.91391 | 31 ft | 1 kts | 73° |
| 2026-04-27 16:56 | 69.68072 | 18.91502 | 31 ft | 10 kts | 96° |
| 2026-04-27 16:56 | 69.68020 | 18.91663 | 34 ft | 13 kts | 173° |
| 2026-04-27 16:56 | 69.67874 | 18.91582 | 37 ft | 30 kts | 192° |
| 2026-04-27 16:57 | 69.67628 | 18.91420 | 39 ft | 41 kts | 193° |
| 2026-04-27 16:57 | 69.67544 | 18.91361 | 41 ft | 0 kts | 195° |
| 2026-04-27 16:57 | 69.67503 | 18.91331 | 40 ft | 16 kts | 193° |
| 2026-04-27 16:57 | 69.67442 | 18.91286 | 38 ft | 5 kts | 194° |
| 2026-04-27 16:58 | 69.67330 | 18.91214 | 35 ft | 16 kts | 196° |
| 2026-04-27 16:58 | 69.67265 | 18.91170 | 32 ft | 8 kts | 121° |
| 2026-04-27 16:58 | 69.67307 | 18.91225 | 30 ft | 14 kts | 357° |
| 2026-04-27 16:58 | 69.67465 | 18.91309 | 39 ft | 48 kts | 12° |
| 2026-04-27 16:59 | 69.68066 | 18.91710 | 30 ft | 128 kts | 12° |
| 2026-04-27 16:59 | 69.69150 | 18.92427 | 200 ft | 181 kts | 14° |
| 2026-04-27 16:59 | 69.70389 | 18.93272 | 1346 ft | 185 kts | 12° |
| 2026-04-27 16:59 | 69.71585 | 18.94161 | 2838 ft | 172 kts | 10° |
| 2026-04-27 17:00 | 69.73535 | 18.95473 | 4132 ft | 184 kts | 10° |
| 2026-04-27 17:00 | 69.75274 | 18.96640 | 4788 ft | 197 kts | 9° |
| 2026-04-27 17:00 | 69.76682 | 18.96829 | 5095 ft | 213 kts | 345° |
| 2026-04-27 17:01 | 69.78020 | 18.94872 | 5670 ft | 222 kts | 324° |
| 2026-04-27 17:01 | 69.79146 | 18.91705 | 6441 ft | 227 kts | 307° |
| 2026-04-27 17:01 | 69.79837 | 18.87713 | 7524 ft | 219 kts | 289° |
| 2026-04-27 17:01 | 69.80167 | 18.83372 | 8252 ft | 228 kts | 283° |
| 2026-04-27 17:02 | 69.80424 | 18.78728 | 8881 ft | 238 kts | 282° |
| 2026-04-27 17:02 | 69.80683 | 18.73973 | 9658 ft | 241 kts | 282° |
| 2026-04-27 17:02 | 69.80695 | 18.69088 | 10417 ft | 250 kts | 259° |
| 2026-04-27 17:02 | 69.79887 | 18.64532 | 11009 ft | 268 kts | 231° |
| 2026-04-27 17:03 | 69.78348 | 18.61122 | 11216 ft | 296 kts | 214° |
| 2026-04-27 17:03 | 69.76462 | 18.57997 | 11450 ft | 319 kts | 212° |
| 2026-04-27 17:03 | 69.74473 | 18.54850 | 11989 ft | 331 kts | 211° |
| 2026-04-27 17:03 | 69.72469 | 18.51702 | 12728 ft | 335 kts | 211° |
| 2026-04-27 17:04 | 69.70421 | 18.48473 | 13486 ft | 336 kts | 212° |
| 2026-04-27 17:04 | 69.68357 | 18.45198 | 14144 ft | 341 kts | 212° |
| 2026-04-27 17:04 | 69.66274 | 18.41877 | 14762 ft | 343 kts | 212° |
| 2026-04-27 17:04 | 69.64185 | 18.38538 | 15388 ft | 345 kts | 212° |
| 2026-04-27 17:05 | 69.62072 | 18.35160 | 15997 ft | 348 kts | 212° |
| 2026-04-27 17:05 | 69.59949 | 18.31768 | 16629 ft | 351 kts | 212° |
| 2026-04-27 17:05 | 69.57806 | 18.28348 | 17279 ft | 354 kts | 212° |
| 2026-04-27 17:05 | 69.56350 | 18.26029 | 17693 ft | 355 kts | 212° |
| 2026-04-27 17:06 | 69.53469 | 18.21451 | 18507 ft | 360 kts | 211° |
| 2026-04-27 17:06 | 69.51274 | 18.17972 | 19139 ft | 362 kts | 211° |
| 2026-04-27 17:06 | 69.49059 | 18.14468 | 19691 ft | 366 kts | 211° |
| 2026-04-27 17:06 | 69.46818 | 18.10933 | 20255 ft | 370 kts | 211° |
| 2026-04-27 17:07 | 69.44561 | 18.07379 | 20826 ft | 373 kts | 211° |
| 2026-04-27 17:07 | 69.42278 | 18.03792 | 21410 ft | 376 kts | 211° |
| 2026-04-27 17:07 | 69.39978 | 18.00192 | 21950 ft | 379 kts | 211° |
| 2026-04-27 17:07 | 69.37662 | 17.96540 | 22508 ft | 382 kts | 212° |
| 2026-04-27 17:08 | 69.35345 | 17.92778 | 23038 ft | 385 kts | 212° |
| 2026-04-27 17:08 | 69.33016 | 17.88953 | 23550 ft | 389 kts | 212° |
| 2026-04-27 17:08 | 69.30663 | 17.85086 | 23994 ft | 394 kts | 212° |
| 2026-04-27 17:08 | 69.28282 | 17.81186 | 24386 ft | 397 kts | 212° |
| 2026-04-27 17:09 | 69.25877 | 17.77264 | 24785 ft | 401 kts | 213° |
| 2026-04-27 17:09 | 69.23445 | 17.73313 | 25159 ft | 405 kts | 213° |
| 2026-04-27 17:09 | 69.20987 | 17.69336 | 25518 ft | 410 kts | 213° |
| 2026-04-27 17:09 | 69.18504 | 17.65332 | 25895 ft | 413 kts | 213° |
| 2026-04-27 17:10 | 69.15995 | 17.61299 | 26268 ft | 417 kts | 213° |
| 2026-04-27 17:10 | 69.13464 | 17.57242 | 26611 ft | 421 kts | 213° |
| 2026-04-27 17:10 | 69.10908 | 17.53155 | 26927 ft | 426 kts | 214° |
| 2026-04-27 17:10 | 69.08324 | 17.49035 | 27275 ft | 429 kts | 214° |
| 2026-04-27 17:11 | 69.05717 | 17.44891 | 27632 ft | 432 kts | 214° |
| 2026-04-27 17:11 | 69.00446 | 17.36546 | 28263 ft | 439 kts | 214° |
| 2026-04-27 17:11 | 68.97775 | 17.32334 | 28584 ft | 443 kts | 214° |
| 2026-04-27 17:12 | 68.92371 | 17.23851 | 29223 ft | 449 kts | 214° |
| 2026-04-27 17:12 | 68.89680 | 17.19643 | 29514 ft | 452 kts | 214° |
| 2026-04-27 17:12 | 68.86886 | 17.15288 | 29802 ft | 456 kts | 214° |
| 2026-04-27 17:13 | 68.84110 | 17.10973 | 30128 ft | 458 kts | 215° |
| 2026-04-27 17:13 | 68.83942 | 17.10713 | 30146 ft | 458 kts | 215° |